Time;durP1;ratioP1;P1;durP2;ratioP2;P2;SDS_P1;SDS_P2;PMS_P1;PMS_P2;Temp;Humidity;BMP_temperature;BMP_pressure;BME280_temperature;BME280_humidity;BME280_pressure;Samples;Min_cycle;Max_cycle;Signal;HPM_P1;HPM_P2
2023/02/18 00:01:29;;;;;;;22.50;14.95;;;4.10;74.70;;;;;;5092250;28;20055;-65
2023/02/18 00:03:55;;;;;;;23.27;15.60;;;4.10;74.90;;;;;;5080902;28;20036;-67
2023/02/18 00:06:23;;;;;;;25.45;15.48;;;4.10;74.80;;;;;;5093543;28;20071;-65
2023/02/18 00:08:49;;;;;;;25.05;15.43;;;4.20;74.60;;;;;;5089808;28;20128;-66
2023/02/18 00:11:16;;;;;;;21.58;14.07;;;4.20;74.50;;;;;;5092372;28;20024;-52
2023/02/18 00:13:42;;;;;;;26.02;15.77;;;4.20;74.40;;;;;;5092489;28;20050;-54
2023/02/18 00:16:11;;;;;;;24.23;15.38;;;4.20;74.40;;;;;;5089080;28;20028;-53
2023/02/18 00:18:37;;;;;;;21.25;14.57;;;4.20;74.30;;;;;;5079207;28;20028;-51
2023/02/18 00:21:04;;;;;;;22.23;14.27;;;4.20;74.40;;;;;;5084772;28;20477;-59
2023/02/18 00:23:30;;;;;;;23.73;14.52;;;4.20;75.00;;;;;;5086810;28;20105;-58
2023/02/18 00:26:05;;;;;;;25.75;15.23;;;4.20;74.20;;;;;;5079708;28;20450;-60
2023/02/18 00:28:32;;;;;;;22.45;15.38;;;4.20;74.20;;;;;;5091174;28;20062;-61
2023/02/18 00:30:57;;;;;;;21.35;15.02;;;4.10;74.30;;;;;;5091965;28;20111;-51
2023/02/18 00:33:23;;;;;;;23.33;14.68;;;4.20;74.60;;;;;;5091196;28;20427;-50
2023/02/18 00:35:49;;;;;;;25.40;15.80;;;4.20;74.50;;;;;;5085719;28;20020;-61
2023/02/18 00:38:15;;;;;;;26.58;15.32;;;4.20;74.60;;;;;;5088978;28;20081;-61
2023/02/18 00:40:42;;;;;;;22.90;14.52;;;4.20;74.60;;;;;;5092428;28;20028;-59
2023/02/18 00:43:08;;;;;;;21.65;14.80;;;4.20;74.70;;;;;;5091673;28;20482;-60
2023/02/18 00:45:34;;;;;;;24.00;15.85;;;4.30;74.60;;;;;;5087799;28;20027;-60
2023/02/18 00:48:00;;;;;;;22.83;14.35;;;4.30;74.60;;;;;;5088786;28;20032;-60
2023/02/18 00:50:25;;;;;;;26.38;15.98;;;4.30;74.70;;;;;;5083977;28;20038;-60
2023/02/18 00:52:51;;;;;;;25.00;15.02;;;4.40;74.70;;;;;;5075329;28;20038;-61
2023/02/18 00:55:16;;;;;;;25.38;15.93;;;4.50;74.70;;;;;;5084525;28;20036;-60
2023/02/18 00:57:42;;;;;;;22.20;14.48;;;4.50;74.50;;;;;;5090621;28;20025;-61
2023/02/18 01:00:08;;;;;;;22.50;14.57;;;4.60;74.60;;;;;;5072099;28;20028;-63
2023/02/18 01:02:34;;;;;;;23.40;15.90;;;4.70;74.50;;;;;;5074679;28;20028;-62
2023/02/18 01:05:00;;;;;;;25.25;16.70;;;4.70;74.30;;;;;;5091922;28;20123;-62
2023/02/18 01:07:26;;;;;;;23.52;15.57;;;4.80;74.40;;;;;;5079304;28;20046;-62
2023/02/18 01:09:51;;;;;;;27.45;17.20;;;4.80;74.20;;;;;;5085204;28;20024;-62
2023/02/18 01:12:17;;;;;;;27.80;16.27;;;4.90;74.10;;;;;;5092046;28;20028;-62
2023/02/18 01:14:43;;;;;;;28.15;18.13;;;4.90;74.10;;;;;;5078792;28;20539;-61
2023/02/18 01:17:09;;;;;;;24.83;16.52;;;4.90;74.10;;;;;;5090382;28;20042;-60
2023/02/18 01:19:35;;;;;;;29.55;17.73;;;5.00;74.00;;;;;;5091921;28;20080;-59
2023/02/18 01:22:00;;;;;;;31.17;18.92;;;5.00;73.90;;;;;;5090936;28;20032;-49
2023/02/18 01:24:26;;;;;;;33.95;19.92;;;5.10;73.90;;;;;;5091721;28;20055;-50
2023/02/18 01:26:52;;;;;;;33.85;20.60;;;5.10;73.80;;;;;;5077905;28;20103;-63
2023/02/18 01:29:17;;;;;;;33.97;21.40;;;5.20;73.70;;;;;;5092105;28;20024;-66
2023/02/18 01:31:43;;;;;;;35.00;21.70;;;5.20;73.50;;;;;;5088584;28;20131;-60
2023/02/18 01:34:08;;;;;;;36.97;20.75;;;5.20;73.80;;;;;;5082452;28;20086;-61
2023/02/18 01:36:34;;;;;;;36.75;22.58;;;5.20;73.60;;;;;;5081354;28;20035;-61
2023/02/18 01:39:00;;;;;;;29.92;19.85;;;5.30;73.80;;;;;;5082349;28;20025;-62
2023/02/18 01:41:25;;;;;;;29.52;18.90;;;5.30;73.50;;;;;;5087664;28;20117;-63
2023/02/18 01:44:15;;;;;;;31.25;19.45;;;5.30;73.40;;;;;;5077470;28;20448;-63
2023/02/18 01:46:41;;;;;;;28.55;19.45;;;5.40;73.50;;;;;;5076624;28;20028;-53
2023/02/18 01:49:07;;;;;;;31.45;20.52;;;5.30;73.30;;;;;;5089128;28;20458;-51
2023/02/18 01:51:47;;;;;;;28.15;18.83;;;5.30;73.30;;;;;;5086681;28;20036;-61
2023/02/18 01:54:26;;;;;;;31.35;19.38;;;5.30;73.40;;;;;;5090987;28;20036;-61
2023/02/18 01:57:00;;;;;;;33.30;19.58;;;5.30;73.50;;;;;;5085483;28;20024;-59
2023/02/18 01:59:41;;;;;;;36.05;21.80;;;5.30;73.70;;;;;;5075422;28;20032;-60
2023/02/18 02:02:13;;;;;;;33.25;22.25;;;5.30;73.70;;;;;;5084085;28;20033;-61
2023/02/18 02:04:39;;;;;;;35.83;22.05;;;5.30;73.90;;;;;;5078295;28;20100;-61
2023/02/18 02:07:05;;;;;;;37.35;23.00;;;5.30;73.90;;;;;;5082030;28;20462;-63
2023/02/18 02:09:32;;;;;;;38.97;21.88;;;5.30;74.20;;;;;;5090815;28;20149;-63
2023/02/18 02:12:14;;;;;;;37.65;23.42;;;5.30;74.30;;;;;;5086569;28;20035;-61
2023/02/18 02:15:00;;;;;;;32.22;21.30;;;5.30;74.40;;;;;;5079178;28;20033;-61
2023/02/18 02:17:46;;;;;;;35.55;21.33;;;5.30;74.60;;;;;;5088183;28;20498;-61
2023/02/18 02:20:37;;;;;;;32.67;21.15;;;5.30;74.60;;;;;;5081160;28;20024;-61
2023/02/18 02:23:02;;;;;;;42.20;22.00;;;5.30;74.50;;;;;;5091183;28;20020;-61
2023/02/18 02:26:07;;;;;;;35.17;20.83;;;5.20;74.60;;;;;;5082183;28;20084;-63
2023/02/18 02:29:30;;;;;;;36.03;20.73;;;5.20;74.70;;;;;;5086986;28;20064;-66
2023/02/18 02:32:14;;;;;;;31.67;19.98;;;5.20;74.90;;;;;;5027886;28;20037;-50
2023/02/18 02:34:54;;;;;;;35.80;21.35;;;5.20;75.00;;;;;;5027417;28;20037;-51
2023/02/18 02:37:32;;;;;;;34.17;21.33;;;5.20;75.20;;;;;;5071241;28;20131;-53
2023/02/18 02:40:17;;;;;;;37.33;22.50;;;5.20;75.30;;;;;;5089499;28;20032;-55
2023/02/18 02:42:58;;;;;;;36.40;21.92;;;5.10;75.40;;;;;;5080739;28;20406;-54
2023/02/18 02:45:45;;;;;;;31.95;20.25;;;5.10;75.40;;;;;;5085829;28;20024;-61
2023/02/18 02:48:25;;;;;;;38.05;22.75;;;5.10;75.50;;;;;;5079675;28;20496;-62
2023/02/18 02:51:03;;;;;;;33.13;21.48;;;5.10;75.60;;;;;;5088090;28;20467;-57
2023/02/18 02:53:32;;;;;;;36.15;22.23;;;5.10;75.80;;;;;;5094313;28;20051;-54
2023/02/18 02:55:58;;;;;;;37.63;22.02;;;5.10;75.90;;;;;;5094468;28;20638;-61
2023/02/18 02:58:23;;;;;;;32.13;20.65;;;5.10;76.10;;;;;;5093205;28;20035;-61
2023/02/18 03:01:08;;;;;;;36.08;21.85;;;5.10;76.20;;;;;;5085542;28;20108;-63
2023/02/18 03:03:39;;;;;;;33.50;20.83;;;5.10;76.30;;;;;;5082027;28;20028;-64
2023/02/18 03:06:24;;;;;;;30.40;19.17;;;5.10;76.30;;;;;;5080559;28;20094;-54
2023/02/18 03:09:17;;;;;;;31.33;19.95;;;5.20;76.30;;;;;;5094000;28;20478;-55
2023/02/18 03:12:00;;;;;;;37.92;20.42;;;5.10;76.20;;;;;;5073973;28;20044;-62
2023/02/18 03:14:42;;;;;;;31.27;19.40;;;5.20;76.40;;;;;;5091528;28;20024;-64
2023/02/18 03:17:21;;;;;;;33.75;19.33;;;5.20;76.40;;;;;;5089889;28;20524;-63
2023/02/18 03:19:53;;;;;;;34.08;19.75;;;5.20;76.40;;;;;;5074483;28;20507;-63
2023/02/18 03:22:24;;;;;;;29.52;19.20;;;5.20;76.50;;;;;;5074816;28;20020;-63
2023/02/18 03:24:53;;;;;;;33.90;18.67;;;5.20;76.60;;;;;;5079729;28;20031;-63
2023/02/18 03:27:46;;;;;;;35.08;19.10;;;5.20;76.70;;;;;;5089901;28;20107;-63
2023/02/18 03:30:17;;;;;;;33.25;17.92;;;5.20;76.60;;;;;;5082818;28;20109;-62
2023/02/18 03:32:46;;;;;;;32.97;19.42;;;5.20;76.70;;;;;;5091907;28;20168;-62
2023/02/18 03:35:15;;;;;;;29.73;19.13;;;5.20;76.80;;;;;;5093810;28;20055;-61
2023/02/18 03:37:59;;;;;;;28.38;17.77;;;5.20;76.70;;;;;;5093564;28;20566;-62
2023/02/18 03:40:29;;;;;;;31.80;18.58;;;5.20;76.80;;;;;;5093160;28;20024;-59
2023/02/18 03:42:57;;;;;;;34.58;18.60;;;5.20;76.70;;;;;;5092730;28;20043;-60
2023/02/18 03:45:23;;;;;;;28.92;17.95;;;5.20;76.70;;;;;;5081509;28;20462;-52
2023/02/18 03:47:49;;;;;;;31.42;17.48;;;5.10;76.80;;;;;;5085712;28;20063;-52
2023/02/18 03:50:15;;;;;;;31.88;19.30;;;5.20;77.00;;;;;;5084958;28;20024;-62
2023/02/18 03:52:40;;;;;;;30.48;18.90;;;5.20;77.10;;;;;;5087373;28;20039;-62
2023/02/18 03:55:08;;;;;;;29.83;18.00;;;5.10;77.10;;;;;;5091025;28;20047;-61
2023/02/18 03:57:33;;;;;;;31.95;18.58;;;5.10;77.30;;;;;;5090448;28;20024;-61
2023/02/18 03:59:59;;;;;;;33.40;19.15;;;5.10;77.90;;;;;;5088266;28;20034;-62
2023/02/18 04:02:25;;;;;;;33.13;18.88;;;5.10;77.40;;;;;;5089679;28;20036;-61
2023/02/18 04:04:51;;;;;;;34.30;18.45;;;5.10;77.60;;;;;;5086851;28;20027;-61
2023/02/18 04:07:16;;;;;;;27.95;16.92;;;5.00;77.50;;;;;;5087863;28;20031;-55
2023/02/18 04:09:42;;;;;;;27.92;17.13;;;5.00;77.60;;;;;;5081317;28;20420;-55
2023/02/18 04:12:07;;;;;;;30.70;18.35;;;5.00;77.70;;;;;;5076531;28;20028;-62
2023/02/18 04:14:33;;;;;;;29.20;17.90;;;5.00;77.90;;;;;;5090770;28;20036;-61
2023/02/18 04:17:00;;;;;;;31.48;18.17;;;5.00;78.00;;;;;;5086270;28;20032;-62
2023/02/18 04:19:26;;;;;;;32.05;18.95;;;5.00;78.00;;;;;;5083654;28;20076;-61
2023/02/18 04:21:52;;;;;;;33.90;18.45;;;5.00;78.00;;;;;;5076525;28;20032;-60
2023/02/18 04:24:17;;;;;;;30.10;18.30;;;5.00;78.30;;;;;;5083474;28;20027;-59
2023/02/18 04:26:43;;;;;;;34.20;18.70;;;5.00;78.10;;;;;;5072645;28;20087;-49
2023/02/18 04:29:08;;;;;;;30.00;18.92;;;5.00;78.40;;;;;;5080844;28;20386;-51
2023/02/18 04:31:34;;;;;;;31.25;18.90;;;5.00;78.30;;;;;;5081424;28;20378;-62
2023/02/18 04:34:00;;;;;;;28.63;16.38;;;5.00;78.40;;;;;;5090281;28;20367;-61
2023/02/18 04:36:25;;;;;;;30.30;17.27;;;5.00;78.40;;;;;;5071763;28;20030;-54
2023/02/18 04:38:51;;;;;;;28.35;17.85;;;5.00;78.30;;;;;;5048872;28;20028;-55
2023/02/18 04:41:17;;;;;;;31.33;16.50;;;5.00;78.50;;;;;;5085910;28;20032;-56
2023/02/18 04:43:42;;;;;;;31.13;17.13;;;5.00;78.40;;;;;;5075587;28;20024;-57
2023/02/18 04:46:08;;;;;;;28.33;16.45;;;5.00;78.50;;;;;;5085061;28;20377;-65
2023/02/18 04:48:34;;;;;;;27.58;16.90;;;5.00;78.50;;;;;;5085614;28;20051;-64
2023/02/18 04:50:59;;;;;;;29.02;16.85;;;4.90;78.60;;;;;;5085431;28;20387;-66
2023/02/18 04:53:25;;;;;;;29.13;16.50;;;4.90;78.80;;;;;;5084666;28;20032;-64
2023/02/18 04:55:52;;;;;;;29.52;17.90;;;4.90;78.80;;;;;;5077512;28;20498;-66
2023/02/18 04:58:19;;;;;;;27.60;16.85;;;4.90;78.80;;;;;;5083863;28;20028;-66
2023/02/18 05:00:45;;;;;;;29.60;17.05;;;4.90;78.80;;;;;;5054434;28;20478;-66
2023/02/18 05:03:10;;;;;;;26.60;16.27;;;4.90;78.80;;;;;;5078565;28;20032;-66
2023/02/18 05:05:36;;;;;;;27.80;16.95;;;4.90;79.00;;;;;;5085054;28;20036;-62
2023/02/18 05:08:03;;;;;;;27.27;17.10;;;4.90;79.00;;;;;;5067823;28;20156;-65
2023/02/18 05:10:29;;;;;;;29.88;16.98;;;4.80;79.00;;;;;;5089948;28;20031;-65
2023/02/18 05:12:54;;;;;;;26.48;16.48;;;4.80;79.00;;;;;;5083089;28;20036;-64
2023/02/18 05:15:20;;;;;;;27.55;15.75;;;4.80;79.20;;;;;;5088157;28;20036;-63
2023/02/18 05:17:45;;;;;;;27.52;16.73;;;4.80;79.50;;;;;;5067729;28;20366;-66
2023/02/18 05:20:11;;;;;;;26.05;15.73;;;4.80;79.50;;;;;;5076211;28;20029;-65
2023/02/18 05:22:37;;;;;;;23.20;15.20;;;4.80;79.60;;;;;;5080665;28;20102;-63
2023/02/18 05:25:03;;;;;;;23.85;14.95;;;4.70;79.80;;;;;;5085295;28;20032;-65
2023/02/18 05:27:29;;;;;;;26.27;15.27;;;4.70;79.90;;;;;;5077477;28;20028;-65
2023/02/18 05:29:55;;;;;;;27.67;16.70;;;4.70;79.90;;;;;;5080380;28;20126;-65
2023/02/18 05:32:22;;;;;;;23.73;15.73;;;4.70;80.10;;;;;;5077074;28;20040;-59
2023/02/18 05:34:48;;;;;;;27.70;15.85;;;4.80;80.20;;;;;;5080188;28;20024;-58
2023/02/18 05:37:14;;;;;;;25.63;15.55;;;4.80;80.30;;;;;;5080156;28;20539;-49
2023/02/18 05:39:40;;;;;;;24.67;15.63;;;4.80;80.20;;;;;;5080190;28;20108;-52
2023/02/18 05:42:06;;;;;;;25.10;16.15;;;4.80;80.30;;;;;;5086657;28;20258;-65
2023/02/18 05:44:32;;;;;;;26.05;15.20;;;4.80;80.30;;;;;;5088790;28;20032;-65
2023/02/18 05:47:00;;;;;;;25.70;15.15;;;4.80;80.40;;;;;;5080489;28;20111;-66
2023/02/18 05:49:27;;;;;;;27.13;15.00;;;4.80;80.40;;;;;;5089005;28;20054;-64
2023/02/18 05:51:53;;;;;;;27.42;17.10;;;4.80;80.50;;;;;;5086840;28;20474;-58
2023/02/18 05:54:19;;;;;;;25.23;15.07;;;4.80;80.70;;;;;;5086762;28;20106;-58
2023/02/18 05:56:44;;;;;;;25.95;16.17;;;4.80;80.60;;;;;;5085605;28;20027;-60
2023/02/18 05:59:10;;;;;;;26.48;16.45;;;4.80;80.90;;;;;;5080804;28;20031;-61
2023/02/18 06:01:36;;;;;;;26.70;16.60;;;4.80;80.80;;;;;;5078167;28;20032;-59
2023/02/18 06:04:01;;;;;;;24.92;15.65;;;4.80;80.80;;;;;;5074445;28;20020;-60
2023/02/18 06:06:27;;;;;;;25.67;15.07;;;4.80;80.80;;;;;;5080904;28;20028;-65
2023/02/18 06:08:53;;;;;;;26.42;15.57;;;4.80;80.90;;;;;;5080759;28;20056;-66
2023/02/18 06:11:18;;;;;;;25.55;14.65;;;4.80;80.90;;;;;;5083129;28;20031;-50
2023/02/18 06:13:44;;;;;;;24.77;14.93;;;4.80;81.10;;;;;;5080523;28;20529;-53
2023/02/18 06:16:10;;;;;;;22.42;13.95;;;4.80;81.20;;;;;;5087367;28;20103;-60
2023/02/18 06:18:36;;;;;;;22.75;15.13;;;4.80;81.30;;;;;;5081966;28;20039;-60
2023/02/18 06:21:02;;;;;;;23.00;14.25;;;4.80;81.30;;;;;;5087828;28;20028;-66
2023/02/18 06:23:27;;;;;;;25.60;14.55;;;4.90;81.90;;;;;;5089633;28;20597;-66
2023/02/18 06:25:53;;;;;;;26.67;16.38;;;4.90;81.40;;;;;;5090249;28;20024;-54
2023/02/18 06:28:19;;;;;;;22.95;14.73;;;4.90;81.30;;;;;;5093719;28;20024;-53
2023/02/18 06:30:45;;;;;;;22.17;13.32;;;4.80;81.40;;;;;;5087662;28;20028;-62
2023/02/18 06:33:11;;;;;;;23.02;13.85;;;4.80;81.60;;;;;;5087582;28;20708;-62
2023/02/18 06:35:37;;;;;;;23.63;14.35;;;4.80;81.80;;;;;;5088022;28;20016;-64
2023/02/18 06:38:03;;;;;;;23.52;13.68;;;4.80;81.90;;;;;;5088870;28;20390;-64
2023/02/18 06:40:29;;;;;;;21.67;14.38;;;4.80;81.90;;;;;;5087686;28;20024;-62
2023/02/18 06:42:54;;;;;;;22.25;13.95;;;4.90;82.10;;;;;;5085456;28;20413;-62
2023/02/18 06:45:20;;;;;;;21.92;13.57;;;4.80;82.10;;;;;;5086555;28;20038;-57
2023/02/18 06:47:46;;;;;;;20.70;13.20;;;4.90;82.30;;;;;;5084038;28;20219;-57
2023/02/18 06:50:12;;;;;;;26.85;14.18;;;4.90;82.30;;;;;;5093781;28;20505;-61
2023/02/18 06:52:38;;;;;;;24.48;15.50;;;4.90;82.30;;;;;;5089030;28;20115;-60
2023/02/18 06:55:08;;;;;;;23.50;13.77;;;4.90;82.20;;;;;;5084583;28;20114;-58
2023/02/18 06:57:34;;;;;;;24.15;15.38;;;4.90;82.30;;;;;;5089731;28;20055;-60
2023/02/18 07:00:00;;;;;;;29.33;16.52;;;4.90;82.30;;;;;;5088825;28;20362;-60
2023/02/18 07:02:26;;;;;;;27.17;15.77;;;4.80;82.30;;;;;;5085511;28;20066;-63
2023/02/18 07:04:52;;;;;;;23.15;13.73;;;4.80;82.60;;;;;;5080887;28;20077;-63
2023/02/18 07:07:18;;;;;;;19.52;13.00;;;4.80;82.90;;;;;;5085850;28;20021;-54
2023/02/18 07:09:43;;;;;;;24.58;14.82;;;4.80;83.00;;;;;;5080297;28;20416;-57
2023/02/18 07:12:09;;;;;;;21.27;13.75;;;4.80;83.40;;;;;;5077673;28;20044;-61
2023/02/18 07:14:35;;;;;;;22.40;13.85;;;4.80;83.70;;;;;;5083964;28;20025;-61
2023/02/18 07:17:01;;;;;;;23.05;14.35;;;4.90;83.90;;;;;;5086211;28;20028;-51
2023/02/18 07:19:27;;;;;;;22.55;14.23;;;5.00;83.80;;;;;;5089045;28;20020;-50
2023/02/18 07:21:56;;;;;;;19.88;13.43;;;5.10;83.70;;;;;;5086845;28;20039;-54
2023/02/18 07:24:22;;;;;;;24.90;13.98;;;5.10;84.00;;;;;;5087976;28;20024;-50
2023/02/18 07:26:47;;;;;;;22.48;13.68;;;5.20;83.40;;;;;;5086587;28;20028;-63
2023/02/18 07:29:13;;;;;;;22.23;14.25;;;5.10;83.40;;;;;;5082117;28;20474;-63
2023/02/18 07:31:39;;;;;;;21.75;13.98;;;5.20;83.40;;;;;;5078833;28;20471;-63
2023/02/18 07:34:04;;;;;;;23.15;13.90;;;5.20;83.20;;;;;;5085806;28;20032;-62
2023/02/18 07:36:30;;;;;;;21.27;13.82;;;5.20;84.00;;;;;;5088359;28;20079;-63
2023/02/18 07:38:55;;;;;;;19.75;13.45;;;5.10;83.60;;;;;;5080989;28;20521;-62
2023/02/18 07:41:22;;;;;;;20.65;12.50;;;5.20;83.50;;;;;;5081945;28;20103;-63
2023/02/18 07:43:49;;;;;;;24.27;14.77;;;5.20;83.70;;;;;;5079014;28;20020;-62
2023/02/18 07:46:15;;;;;;;18.63;12.90;;;5.20;83.80;;;;;;5084867;28;20028;-62
2023/02/18 07:48:41;;;;;;;21.27;14.15;;;5.30;83.80;;;;;;5082121;28;20055;-62
2023/02/18 07:51:09;;;;;;;24.73;14.27;;;5.30;83.90;;;;;;5079637;28;20475;-62
2023/02/18 07:53:36;;;;;;;22.33;13.68;;;5.30;84.00;;;;;;5083284;28;20032;-62
2023/02/18 07:56:02;;;;;;;19.20;11.98;;;5.30;84.10;;;;;;5082914;28;20085;-62
2023/02/18 07:58:31;;;;;;;24.02;14.80;;;5.30;84.10;;;;;;5090721;28;20039;-63
2023/02/18 08:00:57;;;;;;;19.40;13.52;;;5.40;84.40;;;;;;5087472;28;20098;-63
2023/02/18 08:03:26;;;;;;;20.63;13.68;;;5.40;84.30;;;;;;5079258;28;20046;-63
2023/02/18 08:05:52;;;;;;;24.75;14.70;;;5.40;84.40;;;;;;5075805;28;20032;-63
2023/02/18 08:08:23;;;;;;;24.30;16.05;;;5.40;84.80;;;;;;5079780;28;20050;-63
2023/02/18 08:10:50;;;;;;;21.15;13.77;;;5.50;84.90;;;;;;5085324;28;20099;-64
2023/02/18 08:13:16;;;;;;;25.90;15.07;;;5.50;84.60;;;;;;5073400;28;20047;-63
2023/02/18 08:15:42;;;;;;;22.17;14.50;;;5.60;84.70;;;;;;5090526;28;20401;-63
2023/02/18 08:18:14;;;;;;;21.38;14.80;;;5.60;84.70;;;;;;5086942;28;20028;-63
2023/02/18 08:20:40;;;;;;;21.88;14.93;;;5.70;84.90;;;;;;5071695;28;20410;-62
2023/02/18 08:23:06;;;;;;;17.83;12.57;;;5.80;84.70;;;;;;5078982;28;20051;-62
2023/02/18 08:25:32;;;;;;;23.58;15.20;;;5.80;84.60;;;;;;5077786;28;20028;-62
2023/02/18 08:27:58;;;;;;;21.65;14.13;;;5.80;84.80;;;;;;5081089;28;20024;-62
2023/02/18 08:30:24;;;;;;;24.67;14.15;;;5.80;84.90;;;;;;5084131;28;20112;-63
2023/02/18 08:32:50;;;;;;;17.52;12.98;;;5.90;84.90;;;;;;5069871;28;20032;-63
2023/02/18 08:35:16;;;;;;;17.20;12.38;;;5.90;84.90;;;;;;5092002;28;20028;-63
2023/02/18 08:37:41;;;;;;;20.42;13.25;;;5.90;85.10;;;;;;5076624;28;20062;-63
2023/02/18 08:40:08;;;;;;;21.45;13.88;;;5.90;85.40;;;;;;5079925;28;20031;-63
2023/02/18 08:42:34;;;;;;;18.58;12.80;;;6.00;85.80;;;;;;5081745;28;20028;-63
2023/02/18 08:44:59;;;;;;;18.35;12.45;;;6.00;86.00;;;;;;5083503;28;20103;-63
2023/02/18 08:47:25;;;;;;;20.20;12.70;;;6.00;86.50;;;;;;5089852;28;20016;-63
2023/02/18 08:49:54;;;;;;;17.98;12.15;;;6.10;86.90;;;;;;5087365;28;20024;-63
2023/02/18 08:52:20;;;;;;;20.98;13.57;;;6.20;86.80;;;;;;5090394;28;20028;-62
2023/02/18 08:54:46;;;;;;;17.70;11.88;;;6.30;87.00;;;;;;5076914;28;20085;-63
2023/02/18 08:57:12;;;;;;;17.88;12.23;;;6.30;86.70;;;;;;5078349;28;20026;-63
2023/02/18 08:59:38;;;;;;;20.45;13.38;;;6.40;86.50;;;;;;5082738;28;20364;-62
2023/02/18 09:02:03;;;;;;;17.45;12.15;;;6.40;86.50;;;;;;5073551;28;20499;-61
2023/02/18 09:04:29;;;;;;;19.25;13.57;;;6.50;86.50;;;;;;5078300;28;20036;-61
2023/02/18 09:06:55;;;;;;;16.40;12.02;;;6.50;86.50;;;;;;5087125;28;20370;-59
2023/02/18 09:09:20;;;;;;;18.45;12.77;;;6.50;86.60;;;;;;5081876;28;20047;-59
2023/02/18 09:11:46;;;;;;;17.73;12.45;;;6.50;86.50;;;;;;5080045;28;20093;-54
2023/02/18 09:14:13;;;;;;;19.20;12.30;;;6.50;86.80;;;;;;5079630;28;20078;-55
2023/02/18 09:16:40;;;;;;;19.42;12.65;;;6.50;86.90;;;;;;5085275;28;20518;-60
2023/02/18 09:19:06;;;;;;;16.17;12.07;;;6.60;87.10;;;;;;5085880;28;20027;-61
2023/02/18 09:21:32;;;;;;;19.25;13.00;;;6.60;87.20;;;;;;5090247;28;20106;-63
2023/02/18 09:23:58;;;;;;;20.20;13.57;;;6.60;87.50;;;;;;5080755;28;20498;-63
2023/02/18 09:26:25;;;;;;;18.17;12.98;;;6.70;88.00;;;;;;5080747;28;20053;-61
2023/02/18 09:28:52;;;;;;;19.15;13.00;;;6.80;88.30;;;;;;5088666;28;20020;-61
2023/02/18 09:31:20;;;;;;;16.95;12.38;;;6.90;88.50;;;;;;5086919;28;20033;-61
2023/02/18 09:33:51;;;;;;;18.33;11.88;;;7.00;88.30;;;;;;5086917;28;20059;-61
2023/02/18 09:36:19;;;;;;;18.73;12.65;;;7.10;88.30;;;;;;5078683;28;20459;-61
2023/02/18 09:38:45;;;;;;;19.92;12.15;;;7.20;88.30;;;;;;5083654;28;20038;-62
2023/02/18 09:41:41;;;;;;;17.98;11.40;;;7.40;88.20;;;;;;5087783;28;20115;-61
2023/02/18 09:44:43;;;;;;;17.55;12.27;;;7.50;87.90;;;;;;5079409;28;20032;-61
2023/02/18 09:47:12;;;;;;;16.42;11.55;;;7.60;87.60;;;;;;5063614;28;20558;-61
2023/02/18 09:49:42;;;;;;;17.08;11.13;;;7.60;87.30;;;;;;5088201;28;20529;-60
2023/02/18 09:52:16;;;;;;;16.70;11.38;;;7.70;86.90;;;;;;5084824;28;20037;-61
2023/02/18 09:54:42;;;;;;;18.58;12.40;;;7.80;87.00;;;;;;5072143;28;20029;-62
2023/02/18 09:57:28;;;;;;;16.95;11.38;;;7.80;87.10;;;;;;5071622;28;20025;-61
2023/02/18 10:00:01;;;;;;;16.00;11.85;;;7.90;86.90;;;;;;5072637;28;20029;-61
2023/02/18 10:02:28;;;;;;;16.50;10.73;;;7.90;86.80;;;;;;5081884;28;20040;-61
2023/02/18 10:04:55;;;;;;;14.10;9.98;;;8.00;86.40;;;;;;5081136;28;20028;-61
2023/02/18 10:07:29;;;;;;;12.50;10.57;;;8.10;86.30;;;;;;5077722;28;20084;-61
2023/02/18 10:09:58;;;;;;;14.88;10.13;;;8.20;86.10;;;;;;5088768;28;20020;-61
2023/02/18 10:12:25;;;;;;;13.75;9.63;;;8.20;85.60;;;;;;5083917;28;20036;-61
2023/02/18 10:14:54;;;;;;;14.63;10.57;;;8.30;85.70;;;;;;5082333;28;20016;-61
2023/02/18 10:17:23;;;;;;;13.25;9.02;;;8.30;85.50;;;;;;5083380;28;20048;-62
2023/02/18 10:19:51;;;;;;;8.88;6.60;;;8.30;85.10;;;;;;5077748;28;20016;-62
2023/02/18 10:22:17;;;;;;;8.52;6.38;;;8.20;84.80;;;;;;5054656;28;20047;-60
2023/02/18 10:24:49;;;;;;;10.88;6.28;;;8.10;85.10;;;;;;5085516;28;20031;-60
2023/02/18 10:27:28;;;;;;;6.32;5.32;;;8.10;85.50;;;;;;5080200;28;20446;-60
2023/02/18 10:29:58;;;;;;;8.98;5.93;;;8.10;85.80;;;;;;5076927;28;20100;-60
2023/02/18 10:32:31;;;;;;;8.07;5.50;;;8.10;85.90;;;;;;5076515;28;20041;-61
2023/02/18 10:35:39;;;;;;;7.05;5.70;;;8.10;85.90;;;;;;5075067;28;20036;-61
2023/02/18 10:38:07;;;;;;;6.57;5.05;;;8.20;85.70;;;;;;5069534;28;20048;-54
2023/02/18 10:40:51;;;;;;;6.20;4.53;;;8.20;85.40;;;;;;5069676;28;20498;-52
2023/02/18 10:43:35;;;;;;;5.97;4.20;;;8.20;84.80;;;;;;5075755;28;20066;-52
2023/02/18 10:46:19;;;;;;;4.90;3.97;;;8.20;84.90;;;;;;5074638;28;20418;-54
2023/02/18 10:49:12;;;;;;;6.90;4.45;;;8.20;84.40;;;;;;5076847;28;20101;-53
2023/02/18 10:51:46;;;;;;;6.32;4.38;;;8.30;84.50;;;;;;5076157;28;20528;-52
2023/02/18 10:54:13;;;;;;;7.00;4.30;;;8.30;84.50;;;;;;5076358;28;20029;-52
2023/02/18 10:56:50;;;;;;;7.38;5.05;;;8.40;84.20;;;;;;5078518;28;20372;-62
2023/02/18 10:59:32;;;;;;;6.63;4.40;;;8.50;84.00;;;;;;5076382;28;20425;-63
2023/02/18 11:02:00;;;;;;;;;;;8.50;83.80;;;;;;5076013;28;20032;-62
2023/02/18 11:04:46;;;;;;;7.28;4.35;;;8.50;83.40;;;;;;5081756;28;19957;-62
2023/02/18 11:07:15;;;;;;;5.85;4.32;;;8.60;83.60;;;;;;5078162;28;20039;-62
2023/02/18 11:09:51;;;;;;;5.57;4.35;;;8.70;83.90;;;;;;5076845;28;20047;-63
2023/02/18 11:12:24;;;;;;;7.55;4.57;;;8.80;84.00;;;;;;5072176;28;20050;-56
2023/02/18 11:15:09;;;;;;;5.93;4.07;;;8.90;84.10;;;;;;5078142;28;20028;-56
2023/02/18 11:17:38;;;;;;;5.90;3.97;;;9.10;84.00;;;;;;5079331;28;20028;-57
2023/02/18 11:20:31;;;;;;;5.38;3.53;;;9.20;83.50;;;;;;5084572;28;20032;-54
2023/02/18 11:23:05;;;;;;;5.80;3.58;;;9.30;82.80;;;;;;5084176;28;20027;-53
2023/02/18 11:25:36;;;;;;;6.22;3.63;;;9.40;82.30;;;;;;5083837;28;20036;-56
2023/02/18 11:28:17;;;;;;;5.35;3.47;;;9.40;81.90;;;;;;5083061;28;20117;-54
2023/02/18 11:30:47;;;;;;;3.60;3.30;;;9.40;81.50;;;;;;5085279;28;20039;-50
2023/02/18 11:33:25;;;;;;;5.10;3.30;;;9.40;81.40;;;;;;5087081;28;20032;-55
2023/02/18 11:35:55;;;;;;;4.15;3.05;;;9.40;81.30;;;;;;5087570;28;20021;-53
2023/02/18 11:38:49;;;;;;;4.78;3.70;;;9.40;81.10;;;;;;5082762;28;20032;-56
2023/02/18 11:41:38;;;;;;;6.25;3.65;;;9.50;80.90;;;;;;5055665;28;20032;-50
2023/02/18 11:44:15;;;;;;;6.15;4.07;;;9.50;80.90;;;;;;5083329;28;20028;-54
2023/02/18 11:47:15;;;;;;;4.15;3.05;;;9.50;80.40;;;;;;5086916;28;20059;-55
2023/02/18 11:49:43;;;;;;;4.28;2.97;;;9.60;79.90;;;;;;5062334;28;20081;-57
2023/02/18 11:52:23;;;;;;;3.55;2.70;;;9.60;78.80;;;;;;5090835;28;20084;-53
2023/02/18 11:55:07;;;;;;;4.13;2.90;;;9.60;78.10;;;;;;5089740;28;20043;-52
2023/02/18 11:57:36;;;;;;;3.80;2.83;;;9.60;78.00;;;;;;5092898;28;20427;-52
2023/02/18 12:00:05;;;;;;;4.85;2.78;;;9.60;78.00;;;;;;5088919;28;20413;-55
2023/02/18 12:02:36;;;;;;;6.28;3.30;;;9.50;78.20;;;;;;5080723;28;20032;-54
2023/02/18 12:05:17;;;;;;;5.13;3.13;;;9.40;78.30;;;;;;5075705;28;20057;-54
2023/02/18 12:08:09;;;;;;;3.65;3.17;;;9.30;77.90;;;;;;5074449;28;20755;-54
2023/02/18 12:11:00;;;;;;;4.88;3.17;;;9.20;78.00;;;;;;5074233;28;20036;-53
2023/02/18 12:13:31;;;;;;;5.22;2.90;;;9.20;77.60;;;;;;5075458;28;20032;-53
2023/02/18 12:16:06;;;;;;;4.82;3.50;;;9.20;78.00;;;;;;5087585;28;20032;-56
2023/02/18 12:18:53;;;;;;;5.35;2.97;;;9.10;77.90;;;;;;5089935;28;20440;-57
2023/02/18 12:21:38;;;;;;;5.30;2.95;;;9.20;77.90;;;;;;5090609;28;20028;-55
2023/02/18 12:24:25;;;;;;;3.00;2.70;;;9.20;77.40;;;;;;5081629;28;20190;-56
2023/02/18 12:27:31;;;;;;;5.13;2.65;;;9.20;76.70;;;;;;5078184;28;20117;-58
2023/02/18 12:30:35;;;;;;;5.20;2.72;;;9.20;75.50;;;;;;5059212;28;20025;-59
2023/02/18 12:33:24;;;;;;;5.10;2.83;;;9.20;75.50;;;;;;5079595;28;20623;-59
2023/02/18 12:36:02;;;;;;;4.88;2.80;;;9.20;75.10;;;;;;5070759;28;20039;-59
2023/02/18 12:38:52;;;;;;;4.03;2.80;;;9.20;74.90;;;;;;5082884;28;20509;-59
2023/02/18 12:41:23;;;;;;;4.65;3.05;;;9.20;74.60;;;;;;5082608;28;20024;-61
2023/02/18 12:44:05;;;;;;;;;;;9.20;74.50;;;;;;5084137;28;20020;-60
2023/02/18 12:46:37;;;;;;;;;;;9.10;74.10;;;;;;5086549;28;20278;-62
2023/02/18 12:49:21;;;;;;;4.30;2.83;;;9.10;73.40;;;;;;5090329;28;19908;-66
2023/02/18 12:52:03;;;;;;;4.45;2.70;;;9.20;74.00;;;;;;5089831;28;20118;-48
2023/02/18 12:55:05;;;;;;;5.47;2.75;;;9.20;73.60;;;;;;5081871;28;20070;-48
2023/02/18 12:57:58;;;;;;;5.38;3.00;;;9.20;72.50;;;;;;5083392;28;20032;-52
2023/02/18 13:00:43;;;;;;;5.25;2.83;;;9.20;72.10;;;;;;5089191;28;20027;-62